Portada
METAR-TAF:

METAR-TAF

Aeroports :

Natashquan, Quebec, Canadà

latitud: 50-11N, longitud: 061-49W, altitud: 7 m

Observació

L'informe es va fer fa 30 minuts, a les 02:00 UTC
Vent calma
Temperatura 10°C
Humitat 93%
Pressió 1017 hPa
Visibilitat: 14.5 km
Escasses núvols a una alçada de 7000 ft

METAR: CYNA 270200Z AUTO 00000KT 9SM FEW070 10/09 A3003 RMK SLP170

Hora: 22:30 (02:30 UTC)

Pronòstic

L'informe es va fer fa 52 minuts, a les 01:38 UTC
Pronòstic vàlid del 27 a les 02 UTC al 27 a les 14 UTC
Vent 5 kt del Nord
Visibilitat: 10 km
Escasses núvols a una alçada de 7000 ft
Cel ennuvolat a una alçada de 24000 ft
Evolucionant progressivament
l' 27 a les 07 UTC al 27 a les 09 UTC
Vent 10 kt del Nord-Est
Evolucionant progressivament
l' 27 a les 12 UTC al 27 a les 14 UTC
Vent 6 kt del Est

TAF: CYNA 270138Z 2702/2714 36005KT P6SM FEW070 BKN240 BECMG 2707/2709 04010KT BECMG 2712/2714 09006KT RMK FCST BASED ON AUTO OBS. NXT FCST BY 270800Z

Observacions i pronòstics meteorològics de més de 4000 aeroports (METAR i TAF).

Les estacions disponibles són els punts grocs i vermells al mapa.

Posi el ratolí al punt desitjat per veure el nom de l'estació.

Feu clic per veure les observacions i els pronòstics meteorològics.

Per canviar el mapa: feu clic els botons verds amb una creu de color negre per apropar; al botó verd amb un guió per allunyar la imatge; o en les fletxes verdes per a mapes adjacents.


METAR-TAF: